I95 weather

Hardin County Airport
Kenton, Ohio, United States

Public forecast

Using degrees Fahrenheit for public forecast. Weather courtesy of forecast.io.

METAR (pilot weather report)

Closest report is Bellefontaine Regional Airport, 16.4 nm (30.4 km) SSW. Retrieved 2019/05/22 10:15 UTC (0 seconds ago):

KEDJ 221015Z AUTO 14013G18KT 10SM FEW085 13/05 A2999 RMK AO1

TAF (pilot weather forecast)

Closest forecast is Findlay Airport, 24.2 nm (44.8 km) N. Retrieved 2019/05/22 06:42 UTC (3 hours ago):

TAF KFDY 220540Z 2206/2306 09012KT P6SM BKN060 OVC100 FM221200 12012KT P6SM SCT050 OVC100 TEMPO 2212/2214 -SHRA OVC050 FM221500 16011KT P6SM VCSH BKN060 FM221900 19013G22KT P6SM BKN070 FM230200 20006KT P6SM SCT130